X  Fermer Données météorologiques d'aviation de Metar     KDZJ Blairsville Airport
Température
86°F Température
70°F Point de rosée
59% Humidité



Vent
0 MPH
0 KM/H
0 M/S
0 KTS



Calme
N
Conditions actuelles

Clair Clair
Pression 1020.62 (hPa) - 30.14 (inHg)
Visibilité 10 (mile) - 16.1 (km)
Aéroport
Code de l'aéroport KDZJ

Emplacement: Blairsville Airport
Distance: 18 (mi)

Metar:
KDZJ 042315Z AUTO 00000KT 10SM CLR 30/21 A3014 RMK AO2 LTG DSNT SE T02990214

Temps: 07-04-2022 19:15 EDT